Portada
METAR-TAF:

METAR-TAF

Aeropuertos :

Grenchen, Suiza

latitud: 47-10-53N, longitud: 007-24-59E, altitud: 430 m

Observación

El informe se hizo hace 30 minutos, a las 13:50 UTC
Viento 8 kt del este-noreste
Temperatura 7°C
Humedad 70%
Presión 1021 hPa
Visibilidad 10 km o más
Escasas nubes a una altura de 2600 ft
Nubes dispersas a una altura de 3200 ft
Cielo cubierto a una altura de 6000 ft

METAR: LSZG 051350Z 07008KT 9999 FEW026 SCT032 OVC060 07/02 Q1021 NOSIG

Hora: 15:20 (14:20 UTC)

Pronóstico

El informe se hizo hace 2 horas y 55 minutos, a las 11:25 UTC
Pronóstico válido del 05 a las 12 UTC al 05 a las 21 UTC
Viento 7 kt del este
Visibilidad 10 km o más
Escasas nubes a una altura de 2500 ft
Cielo nuboso a una altura de 6500 ft
Temporalmente
del 05 a las 12 UTC al 05 a las 18 UTC
Viento 15 kt del este-noreste con ráfagas de 28 kt

TAF: LSZG 051125Z 0512/0521 08007KT 9999 FEW025 BKN065 TEMPO 0512/0518 06015G28KT

Observaciones y pronósticos meteorológicos de más de 4000 aeropuertos (mensajes METAR y TAF).

Los puntos amarillos y rojos representan las estaciones disponibles.

Ponga el ratón en el punto deseado para ver el nombre de la estación.

Haga clic para ver las observaciones y los pronósticos meteorológicos.

Para cambiar el mapa : haga clic en los botones verdes con una cruz de color negro para hacer un zoom, en el botón verde con un guión para alejar o en las flechas verdes para mapas adyacentes.


METAR-TAF: